Latest Coastal Weather Observations for Cape Naturaliste

IDW60701

Issued at 9:33 pm WST Monday 27 September 2021 (issued every 10 minutes, with the page automatically refreshed every 10 minutes)

About coastal observations | Map of coastal stations | Coastal observations for WA | Marine services | Other Formats
Station Details ID: 009519 Name: CAPE NATURALISTE Lat: -33.54 Lon: 115.02 Height: 109.0 m
Data from the previous 72 hours. | See also: Recent months at Cape Naturaliste
Date/Time
WST
Wind Sea
Height
m
Swell Vis
km
Cloud Weather Temp
°C
Press
MSL
hPa
Rain since
9am
mm
Dir  Spd
kts
Gust
kts
Height
m
Period
s
Dir
27/09:30pm SSE 9 13 - - - - - - - 11.9 1018.6 0.0
27/09:00pm SSE 11 14 - - - - - - - 11.8 1018.5 0.0
27/08:30pm SSE 10 14 - - - - - - - 11.8 1018.3 0.0
27/08:00pm SSE 11 17 - - - - - - - 12.1 1018.0 0.0
27/07:30pm S 12 17 - - - - - - - 12.6 1017.6 0.0
27/07:00pm S 11 15 - - - - - - - 12.8 1017.3 0.0
27/06:30pm S 11 16 - - - - - - - 13.1 1017.1 0.0
27/06:00pm SSE 12 19 - - - - - - - 13.9 1016.9 0.0
27/05:30pm SSE 11 17 - - - - - - - 14.9 1016.6 0.0
27/05:00pm S 12 19 - - - - - - - 16.1 1016.1 0.0
27/04:30pm SSE 13 20 - - - - - - - 16.4 1015.8 0.0
27/04:00pm SSE 16 22 - - - - - - - 17.9 1015.5 0.0
27/03:30pm S 15 21 - - - - - - - 17.8 1015.2 0.0
27/03:00pm SSW 17 23 - - - - - - - 18.5 1015.0 0.0
27/02:30pm SSW 17 23 - - - - - - - 18.2 1014.8 0.0
27/02:00pm SSW 18 24 - - - - - - - 17.4 1014.8 0.0
27/01:30pm SSW 17 24 - - - - - - - 18.2 1014.8 0.0
27/01:05pm S 15 25 - - - - - - - 18.5 1014.8 0.0
27/01:00pm S 14 18 - - - - - - - 18.7 1015.0 0.0
27/12:30pm S 13 18 - - - - - - - 18.5 1015.1 0.0
27/12:00pm S 13 20 - - - - - - - 17.7 1015.2 0.0
27/11:30am S 15 21 - - - - - - - 17.8 1015.3 0.0
27/11:00am S 15 24 - - - - - - - 17.4 1015.5 0.0
27/10:30am S 14 20 - - - - - - - 17.2 1015.5 0.0
27/10:00am SSE 14 21 - - - - - - - 16.4 1015.3 0.0
27/09:30am S 16 25 - - - - - - - 17.1 1015.0 0.0
27/09:04am S 15 26 - - - - - - - 16.0 1014.7 0.0
27/09:00am S 16 21 - - - - - - - 15.4 1014.7 0.0
27/08:30am S 15 21 - - - - - - - 15.6 1014.2 0.0
27/08:00am S 17 23 - - - - - - - 14.3 1013.9 0.0
27/07:30am S 15 19 - - - - - - - 13.8 1013.6 0.0
27/07:00am S 16 21 - - - - - - - 13.2 1013.1 0.0
27/06:30am S 16 21 - - - - - - - 13.0 1012.8 0.0
27/06:00am S 15 21 - - - - - - - 12.9 1012.4 0.0
27/05:30am S 15 19 - - - - - - - 13.1 1011.9 0.0
27/05:00am S 15 21 - - - - - - - 12.9 1011.5 0.0
27/04:30am S 16 21 - - - - - - - 13.0 1011.2 0.0
27/04:00am S 15 20 - - - - - - - 13.0 1011.1 0.0
27/03:30am S 15 19 - - - - - - - 13.0 1011.0 0.0
27/03:00am S 13 18 - - - - - - - 13.0 1010.9 0.0
27/02:30am S 12 19 - - - - - - - 13.6 1011.0 0.0
27/02:00am S 13 18 - - - - - - - 13.5 1010.8 0.0
27/01:30am S 13 19 - - - - - - - 13.5 1010.5 0.0
27/01:00am S 12 17 - - - - - - - 13.4 1010.4 0.0
27/12:30am S 12 17 - - - - - - - 13.1 1010.1 0.0
27/12:00am S 12 16 - - - - - - - 12.9 1009.9 0.0
 
Date/Time
WST
Wind Sea
Height
m
Swell Vis
km
Cloud Weather Temp
°C
Press
MSL
hPa
Rain since
9am
mm
Dir  Spd
kts
Gust
kts
Height
m
Period
s
Dir
26/11:30pm S 12 16 - - - - - - - 13.0 1010.1 0.0
26/11:00pm S 12 15 - - - - - - - 13.1 1010.0 0.0
26/10:30pm SSW 11 15 - - - - - - - 13.5 1010.2 0.0
26/10:00pm S 13 19 - - - - - - - 14.2 1010.2 0.0
26/09:30pm S 10 15 - - - - - - - 14.3 1010.0 0.0
26/09:00pm S 9 11 - - - - - - - 14.4 1009.9 0.0
26/08:30pm SSE 7 8 - - - - - - - 13.7 1009.6 0.0
26/08:00pm SE 6 8 - - - - - - - 13.6 1009.0 0.0
26/07:30pm SSW 5 6 - - - - - - - 14.3 1008.5 0.0
26/07:00pm SW 5 6 - - - - - - - 14.4 1008.2 0.0
26/06:30pm SW 5 6 - - - - - - - 14.3 1008.0 0.0
26/06:00pm SW 5 6 - - - - - - - 15.3 1007.7 0.0
26/05:30pm SW 8 11 - - - - - - - 16.0 1007.4 0.0
26/05:00pm SW 11 14 - - - - - - - 16.9 1007.0 0.0
26/04:30pm WSW 11 14 - - - - - - - 18.7 1006.6 0.0
26/04:00pm SW 11 14 - - - - - - - 19.0 1006.3 0.0
26/03:30pm WSW 12 15 - - - - - - - 19.2 1006.1 0.0
26/03:00pm WSW 12 16 - - - - - - - 18.9 1005.9 0.0
26/02:30pm W 14 18 - - - - - - - 17.9 1006.0 0.0
26/02:00pm W 14 17 - - - - - - - 18.2 1006.0 0.0
26/01:30pm W 15 21 - - - - - - - 18.1 1006.0 0.0
26/01:00pm W 17 21 - - - - - - - 19.3 1006.1 0.0
26/12:30pm W 18 22 - - - - - - - 19.4 1006.2 0.0
26/12:00pm WSW 16 20 - - - - - - - 19.8 1006.2 0.0
26/11:30am SW 17 21 - - - - - - - 18.2 1006.2 0.0
26/11:00am WSW 17 21 - - - - - - - 18.7 1006.2 0.0
26/10:30am WSW 17 22 - - - - - - - 18.0 1006.2 0.0
26/10:00am WSW 15 20 - - - - - - - 17.5 1006.2 0.0
26/09:30am WSW 13 16 - - - - - - - 17.0 1006.2 0.0
26/09:00am W 11 13 - - - - - - - 17.6 1006.3 0.0
26/08:30am WNW 9 11 - - - - - - - 15.3 1006.3 0.0
26/08:00am WNW 6 8 - - - - - - - 14.5 1006.2 0.0
26/07:30am SSW 2 6 - - - - - - - 13.1 1006.0 0.0
26/07:00am SE 4 5 - - - - - - - 12.3 1005.9 0.0
26/06:30am SE 6 7 - - - - - - - 9.9 1005.6 0.0
26/06:00am SE 6 7 - - - - - - - 9.4 1005.5 0.0
26/05:30am SE 7 7 - - - - - - - 9.6 1005.3 0.0
26/05:00am SE 8 10 - - - - - - - 9.9 1005.1 0.0
26/04:30am SSE 7 9 - - - - - - - 10.0 1005.2 0.0
26/04:00am SE 8 10 - - - - - - - 10.3 1005.2 0.0
26/03:30am SSE 8 11 - - - - - - - 10.6 1005.2 0.0
26/03:00am SSE 9 11 - - - - - - - 10.8 1005.3 0.0
26/02:30am SSE 7 9 - - - - - - - 10.3 1005.6 0.0
26/02:00am S 7 10 - - - - - - - 10.6 1005.9 0.0
26/01:30am SSE 8 10 - - - - - - - 11.2 1006.1 0.0
26/01:00am SE 9 13 - - - - - - - 12.3 1006.5 0.0
26/12:30am ESE 13 15 - - - - - - - 12.6 1006.5 0.0
26/12:00am ESE 13 17 - - - - - - - 12.7 1006.7 0.0
 
Date/Time
WST
Wind Sea
Height
m
Swell Vis
km
Cloud Weather Temp
°C
Press
MSL
hPa
Rain since
9am
mm
Dir  Spd
kts
Gust
kts
Height
m
Period
s
Dir
25/11:30pm ESE 13 17 - - - - - - - 12.8 1007.2 0.0
25/11:00pm ESE 14 17 - - - - - - - 12.9 1007.6 0.0
25/10:30pm ESE 13 16 - - - - - - - 13.1 1008.3 0.0
25/10:00pm ESE 13 16 - - - - - - - 13.2 1008.7 0.0
25/09:30pm ESE 13 17 - - - - - - - 13.6 1008.9 0.0
25/09:00pm ESE 13 17 - - - - - - - 13.7 1009.0 0.0
25/08:30pm ESE 13 17 - - - - - - - 14.2 1008.9 0.0
25/08:00pm E 14 19 - - - - - - - 15.0 1008.9 0.0
25/07:30pm ESE 13 17 - - - - - - - 14.6 1008.7 0.0
25/07:00pm SE 12 15 - - - - - - - 14.9 1008.5 0.0
25/06:30pm SE 12 16 - - - - - - - 15.5 1008.8 0.0
25/06:00pm ESE 13 17 - - - - - - - 15.7 1008.8 0.0
25/05:30pm ESE 12 17 - - - - - - - 15.9 1009.0 0.0
25/05:00pm E 13 18 - - - - - - - 16.6 1009.1 0.0
25/04:30pm E 10 13 - - - - - - - 17.3 1009.2 0.0
25/04:00pm ESE 10 13 - - - - - - - 18.5 1009.3 0.0
25/03:30pm E 10 14 - - - - - - - 19.1 1009.4 0.0
25/03:00pm E 9 13 - - - - - - - 18.2 1009.5 0.0
25/02:30pm E 11 15 - - - - - - - 18.0 1010.0 0.0
25/02:00pm ESE 12 17 - - - - - - - 17.6 1010.2 0.0
25/01:30pm E 14 18 - - - - - - - 17.8 1010.7 0.0
25/01:00pm E 13 17 - - - - - - - 17.3 1011.2 0.0
25/12:30pm ESE 13 18 - - - - - - - 16.6 1011.5 0.0
25/12:00pm ESE 15 22 - - - - - - - 16.8 1012.0 0.0
25/11:30am E 17 22 - - - - - - - 16.5 1012.7 0.0
25/11:00am ESE 17 24 - - - - - - - 17.0 1013.3 0.0
25/10:30am ESE 18 25 - - - - - - - 16.4 1014.0 0.0
25/10:00am ESE 19 25 - - - - - - - 15.3 1014.5 0.0
25/09:30am ESE 18 24 - - - - - - - 14.4 1015.1 0.0
25/09:00am ESE 20 26 - - - - - - - 13.3 1015.4 0.0
25/08:30am ESE 19 27 - - - - - - - 12.7 1015.6 0.0
25/08:00am ESE 20 26 - - - - - - - 11.6 1015.9 0.0
25/07:30am ESE 18 25 - - - - - - - 10.2 1016.2 0.0
25/07:00am ESE 16 21 - - - - - - - 8.6 1016.5 0.0
25/06:30am ESE 18 24 - - - - - - - 7.8 1016.5 0.0
25/06:00am ESE 18 22 - - - - - - - 7.4 1016.7 0.0
25/05:30am ESE 19 23 - - - - - - - 7.5 1016.8 0.0
25/05:00am ESE 19 24 - - - - - - - 7.5 1017.1 0.0
25/04:30am ESE 18 22 - - - - - - - 7.4 1017.4 0.0
25/04:00am ESE 18 23 - - - - - - - 7.5 1017.8 0.0
25/03:30am ESE 18 24 - - - - - - - 7.7 1018.0 0.0
25/03:00am ESE 18 23 - - - - - - - 8.0 1018.2 0.0
25/02:30am ESE 18 24 - - - - - - - 8.0 1018.6 0.0
25/02:00am ESE 17 25 - - - - - - - 8.4 1018.9 0.0
25/01:30am ESE 17 22 - - - - - - - 9.0 1019.4 0.0
25/01:00am ESE 17 22 - - - - - - - 8.7 1019.6 0.0
25/12:30am ESE 16 21 - - - - - - - 8.8 1019.8 0.0
25/12:00am ESE 16 21 - - - - - - - 9.0 1020.0 0.0
 
Date/Time
WST
Wind Sea
Height
m
Swell Vis
km
Cloud Weather Temp
°C
Press
MSL
hPa
Rain since
9am
mm
Dir  Spd
kts
Gust
kts
Height
m
Period
s
Dir
24/11:30pm ESE 15 20 - - - - - - - 9.4 1020.3 0.0
24/11:00pm ESE 14 19 - - - - - - - 9.6 1020.7 0.0
24/10:30pm ESE 13 19 - - - - - - - 10.4 1021.1 0.0
24/10:00pm ESE 13 19 - - - - - - - 10.4 1021.2 0.0

Other formats

Comma delimited format used in spreadsheet applications
http://www.bom.gov.au/fwo/IDW60701/IDW60701.94600.axf

JavaScript Object Notation format (JSON) in row-major order
http://www.bom.gov.au/fwo/IDW60701/IDW60701.94600.json

Data quality

Most of these data are generated automatically and are frequently updated. Quality checks on data are not normally performed. It is possible for incorrect values to appear. Refer to information at About Latest Weather Observations and please check the disclaimer before using these data.